HomeShort term forecast

Short term forecast

Graphical weather forecast for the next 48 hours for Montreal:
Short term forecast
This weather forecast is automatically refreshed every 3 hours.

Hourly Experimental Forecast for the next 48 hours

Overall summary: Partly cloudy tomorrow morning.

 Date & Hour   Temp   Feel   Baro   Hum   Speed & Bearing   Wind Gust   Precip.%   Precip.   Visibility   Cloud cover   Conditions 
 18/12/2018 - 23:00  -7.7°C  -13.8°C  1020.4 hPa  70%  14.4 km/h   30.8 km/h  0%  --  16.1km  29%  Partly Cloudy 
 19/12/2018 - 00:00  -7.4°C  -13.2°C  1020.1 hPa  70%  13.6 km/h   31.6 km/h  1%  0.05 mm/h  16.1km  9%  Clear 
 19/12/2018 - 01:00  -7.3°C  -12.9°C  1019.8 hPa  70%  13.1 km/h   31.8 km/h  1%  0.05 mm/h  16.1km  0%  Clear 
 19/12/2018 - 02:00  -7.4°C  -12.9°C  1020.1 hPa  70%  12.5 km/h   31.0 km/h  0%  --  16.1km  3%  Clear 
 19/12/2018 - 03:00  -7.5°C  -12.8°C  1020.0 hPa  71%  11.7 km/h   31.2 km/h  0%  --  16.1km  6%  Clear 
 19/12/2018 - 04:00  -7.0°C  -11.9°C  1019.9 hPa  68%  10.9 km/h   30.9 km/h  0%  --  16.1km  13%  Clear 
 19/12/2018 - 05:00  -8.1°C  -12.9°C  1019.6 hPa  75%  9.8 km/h   28.6 km/h  0%  --  16.1km  31%  Partly Cloudy 
 19/12/2018 - 06:00  -8.4°C  -12.4°C  1019.4 hPa  76%  7.7 km/h   21.5 km/h  0%  --  16.1km  45%  Partly Cloudy 
 19/12/2018 - 07:00  -8.4°C  -12.1°C  1019.1 hPa  77%  7.0 km/h   19.9 km/h  1%  0.01 mm/h  16.1km  35%  Partly Cloudy 
 19/12/2018 - 08:00  -7.9°C  -11.6°C  1018.8 hPa  77%  7.0 km/h   17.7 km/h  0%  --  16.1km  23%  Clear 
 19/12/2018 - 09:00  -7.0°C  -11.1°C  1018.3 hPa  75%  8.2 km/h   17.5 km/h  0%  --  16.1km  24%  Clear 
 19/12/2018 - 10:00  -6.3°C  -10.4°C  1018.0 hPa  75%  8.7 km/h   18.5 km/h  1%  0.04 mm/h  16.1km  15%  Clear 
 19/12/2018 - 11:00  -5.2°C  -9.0°C  1017.4 hPa  76%  8.5 km/h   18.4 km/h  0%  --  16.1km  43%  Partly Cloudy 
 19/12/2018 - 12:00  -4.0°C  -7.6°C  1016.7 hPa  79%  8.4 km/h   17.7 km/h  2%  0.03 mm/h  16.1km  53%  Partly Cloudy 
 19/12/2018 - 13:00  -2.9°C  -6.1°C  1016.2 hPa  80%  8.1 km/h   18.0 km/h  2%  0.05 mm/h  16.1km  70%  Mostly Cloudy 
 19/12/2018 - 14:00  -2.2°C  -5.1°C  1015.8 hPa  82%  7.4 km/h   14.9 km/h  2%  0.03 mm/h  16.1km  80%  Mostly Cloudy 
 19/12/2018 - 15:00  -1.6°C  -4.1°C  1015.5 hPa  82%  6.5 km/h   10.0 km/h  2%  0.01 mm/h  16.1km  91%  Mostly Cloudy 
 19/12/2018 - 16:00  -1.4°C  -3.6°C  1015.4 hPa  83%  5.9 km/h   6.2 km/h  0%  --  16.1km  97%  Overcast 
 19/12/2018 - 17:00  -1.4°C  -3.8°C  1015.6 hPa  83%  6.2 km/h   6.5 km/h  0%  --  16.1km  88%  Mostly Cloudy 
 19/12/2018 - 18:00  -1.7°C  -4.4°C  1016.0 hPa  83%  7.0 km/h   7.3 km/h  0%  --  16.1km  75%  Mostly Cloudy 
 19/12/2018 - 19:00  -1.9°C  -4.9°C  1016.2 hPa  82%  7.6 km/h   7.9 km/h  1%  0.01 mm/h  16.1km  67%  Mostly Cloudy 
 19/12/2018 - 20:00  -2.1°C  -5.1°C  1016.2 hPa  81%  7.8 km/h   8.3 km/h  1%  0.01 mm/h  16.1km  73%  Mostly Cloudy 
 19/12/2018 - 21:00  -2.1°C  -5.1°C  1016.0 hPa  79%  7.8 km/h   8.6 km/h  1%  0.01 mm/h  16.1km  84%  Mostly Cloudy 
 19/12/2018 - 22:00  -2.2°C  -5.1°C  1015.9 hPa  78%  7.6 km/h   8.7 km/h  0%  --  16.1km  93%  Mostly Cloudy 
 19/12/2018 - 23:00  -2.2°C  -5.0°C  1015.9 hPa  77%  7.2 km/h   8.4 km/h  0%  --  16.1km  94%  Overcast 
 20/12/2018 - 00:00  -2.2°C  -4.8°C  1015.9 hPa  77%  6.8 km/h   7.8 km/h  0%  --  16.1km  96%  Overcast 
 20/12/2018 - 01:00  -2.3°C  -4.8°C  1016.0 hPa  77%  6.4 km/h   7.2 km/h  0%  --  16.1km  92%  Mostly Cloudy 
 20/12/2018 - 02:00  -2.5°C  -5.0°C  1016.1 hPa  78%  6.2 km/h   6.7 km/h  0%  --  16.1km  76%  Mostly Cloudy 
 20/12/2018 - 03:00  -2.8°C  -5.2°C  1016.3 hPa  78%  6.0 km/h   6.3 km/h  0%  --  16.1km  53%  Partly Cloudy 
 20/12/2018 - 04:00  -3.2°C  -5.6°C  1016.6 hPa  79%  5.8 km/h   6.0 km/h  0%  --  16.1km  36%  Partly Cloudy 
 20/12/2018 - 05:00  -3.6°C  -6.1°C  1016.7 hPa  81%  5.8 km/h   5.9 km/h  0%  --  16.1km  30%  Partly Cloudy 
 20/12/2018 - 06:00  -4.1°C  -6.6°C  1016.9 hPa  83%  5.7 km/h   5.8 km/h  0%  --  16.1km  30%  Partly Cloudy 
 20/12/2018 - 07:00  -4.2°C  -6.6°C  1017.0 hPa  84%  5.4 km/h   5.6 km/h  0%  --  16.1km  34%  Partly Cloudy 
 20/12/2018 - 08:00  -4.0°C  -6.1°C  1017.3 hPa  85%  5.0 km/h   5.2 km/h  0%  --  16.1km  43%  Partly Cloudy 
 20/12/2018 - 09:00  -3.3°C  -3.3°C  1017.6 hPa  83%  4.3 km/h   4.7 km/h  0%  --  16.1km  57%  Partly Cloudy 
 20/12/2018 - 10:00  -2.6°C  -2.6°C  1017.6 hPa  81%  3.9 km/h   4.5 km/h  2%  0.01 mm/h  14.5km  68%  Mostly Cloudy 
 20/12/2018 - 11:00  -1.7°C  -1.7°C  1017.2 hPa  81%  4.0 km/h   4.5 km/h  0%  --  14.0km  72%  Mostly Cloudy 
 20/12/2018 - 12:00  -0.5°C  -0.5°C  1016.6 hPa  80%  4.5 km/h   4.8 km/h  0%  --  14.4km  77%  Mostly Cloudy 
 20/12/2018 - 13:00  0.4°C  -1.1°C  1016.1 hPa  80%  4.9 km/h   5.2 km/h  0%  --  14.7km  82%  Mostly Cloudy 
 20/12/2018 - 14:00  0.6°C  -1.0°C  1015.8 hPa  80%  5.3 km/h   5.7 km/h  0%  --  14.9km  88%  Mostly Cloudy 
 20/12/2018 - 15:00  0.5°C  -1.4°C  1015.5 hPa  82%  5.7 km/h   6.6 km/h  0%  --  15.1km  94%  Overcast 
 20/12/2018 - 16:00  0.3°C  -1.8°C  1015.3 hPa  84%  6.3 km/h   7.6 km/h  0%  --  14.9km  99%  Overcast 
 20/12/2018 - 17:00  0.2°C  -2.3°C  1015.2 hPa  84%  7.3 km/h   9.3 km/h  0%  --  14.0km  100%  Overcast 
 20/12/2018 - 18:00  0.1°C  -2.7°C  1015.3 hPa  83%  8.4 km/h   11.3 km/h  0%  --  12.8km  100%  Overcast 
 20/12/2018 - 19:00  0.0°C  -3.1°C  1015.2 hPa  83%  9.2 km/h   13.1 km/h  0%  --  12.1km  99%  Overcast 
 20/12/2018 - 20:00  -0.1°C  -3.2°C  1014.7 hPa  83%  9.4 km/h   14.7 km/h  2%  0.01 mm/h  12.4km  99%  Overcast 
 20/12/2018 - 21:00  0.0°C  -3.1°C  1014.0 hPa  83%  9.4 km/h   16.1 km/h  2%  0.03 mm/h  12.8km  99%  Overcast 
 20/12/2018 - 22:00  0.2°C  -2.9°C  1013.4 hPa  83%  9.5 km/h   17.1 km/h  3%  0.07 mm/h  13.0km  99%  Overcast 
Test

 

Past weather and reports

Past weatherFind in this section the past weather conditions, weather archive, graphics, reports and statistics.

Current conditions

Current weather condition for MontrealAll you need to know about the current weather conditions for Montreal. Weather data is updated every 10 minutes.

Weather forecast

Current Montreal weatherSince 2004, celinium.com website has provided accurate weather forecast for Montreal's island.